Pagrindinis puslapis
METAR-TAF:

METAR-TAF

Oro uostai :

Stokholmas-Skavsta, Švedija

platuma: 58-47N, ilguma: 016-55E, Aukštis: 43 m

Dabartinis oras

Ataskaita buvo paskelbta 43 minutes, ne 21:50 UTC
Vėjas 3 kt iš Pietvakarių
Temperatūra 15°C
Drėgmė 72%
Slėgis 1019 hPa
Matomumas 10 km arba daugiau
nėra debesų žemiau 1500 m ir nėra kamuolinių lietaus debesų

METAR: ESKN 022150Z 22003KT CAVOK 15/10 Q1019

Laikas: 00:33 (22:33 UTC)

Prognozė

Ataskaita buvo paskelbta 2 valandos ir 3 minutes, ne 20:30 UTC
Prognozė galioja nuo 02 metu 21 UTC su 03 metu 21 UTC
Vėjas 5 kt iš Vakarų/Pietvakarių
Matomumas 10 km arba daugiau
nėra debesų žemiau 1500 m ir nėra kamuolinių lietaus debesų
Tikimybė 40%
nuo 03 metu 11 UTC su 03 metu 18 UTC
Išsisklaidę debesys ne aukštis 6000 ft, aukštai iškilę kamuoliniai debesys.
Tapsmas
nuo 03 metu 12 UTC su 03 metu 14 UTC
Vėjas 10 kt iš Pietryčių

TAF: ESKN 022030Z 0221/0321 24005KT CAVOK PROB40 0311/0318 SCT060TCU BECMG 0312/0314 14010KT

Orai ataskaitas ir orų prognozės (METAR, TAF).

turimą stotys yra geltonos ir raudonos taškus žemėlapyje.

Perkelti pele per norėdami pamatyti stoties vardą.

Tada spustelėkite, norėdami matyti oro stebėjimo ir prognozės.

Norėdami pakeisti žemėlapį: spustelėkite ant žalios mygtukų su juodo kryžiaus žemyn,; žalią mygtuką su brūkšneliu, jei norite nutolinti; arba žalių rodyklių gretimoms žemėlapius.


METAR-TAF: